Huvudsida
METAR-TAF:

METAR-TAF

Flygplatser :

London Biggin Hill Airport

London Biggin Hill, England

latitud: 51-19N, longitud: 000-02E, höjd: 183 m

Aktuellt väderrapport

Denna rapport gjordes för 1 timme och 12 minuter sedan, klockan 21:20 UTC
Vind 8 kt från ost/nordost
Temperatur 14°C
Fuktighet 82%
Tryck 1036 hPa
Sikt 10 km eller mer
Spridda moln på en höjd av 4500 ft

METAR: EGKB 272120Z 06008KT 9999 SCT045 14/11 Q1036

Tid: 23:32 (22:32 UTC)

Väderprognos

Denna rapport gjordes för 8 timmar och 28 minuter sedan, klockan 14:04 UTC
Prognos gäller från 27 kl. 15 UTC till 27 kl. 22 UTC
Vind 5 kt från sydost
Sikt 10 km eller mer
Få moln på en höjd av 4800 ft

TAF: EGKB 271404Z 2715/2722 14005KT 9999 FEW048

Aktuella väderrapporter och prognoser från 4000 flygplatser (METAR- och TAF-rapporter).

De tillgängliga stationerna syns som gula och röda prickar på kartan.

För musen över prickarna för att se namnen på stationerna.

Klicka sedan för att få väderrapporter och prognoser.

För att ändra kartan: Klicka på de gröna knapparna med ett svart kors på för att zooma in; den gröna knappen med ett streck på för att zooma ut; eller på de gröna pilarna för angränsande kartor.


METAR-TAF: